createdAt,value
2023-05-07T00:00:24.955Z,0
2023-05-07T00:01:26.590Z,0
2023-05-07T00:03:24.048Z,0
2023-05-07T00:04:24.109Z,0
2023-05-07T00:05:24.345Z,0
2023-05-07T00:06:23.889Z,0
2023-05-07T00:07:23.747Z,0
2023-05-07T00:08:23.789Z,0
2023-05-07T00:09:24.297Z,0
2023-05-07T00:10:24.380Z,0
2023-05-07T00:11:23.789Z,0
2023-05-07T00:12:24.241Z,0
2023-05-07T00:13:23.897Z,0
2023-05-07T00:14:23.780Z,0.109
2023-05-07T00:15:24.695Z,0
2023-05-07T00:16:24.467Z,0
2023-05-07T00:17:24.135Z,0
2023-05-07T00:18:23.602Z,0
2023-05-07T00:19:24.254Z,0
2023-05-07T00:20:24.119Z,0
2023-05-07T00:21:23.703Z,0
2023-05-07T00:22:24.529Z,0
2023-05-07T00:23:24.007Z,0
2023-05-07T00:24:23.803Z,0
2023-05-07T00:25:24.222Z,0
2023-05-07T00:26:23.881Z,0
2023-05-07T00:27:23.750Z,0
2023-05-07T00:28:24.128Z,0.109
2023-05-07T00:29:23.988Z,0.109
2023-05-07T00:30:24.336Z,0
2023-05-07T00:31:24.054Z,0
2023-05-07T00:32:23.714Z,0
2023-05-07T00:33:24.292Z,0
2023-05-07T00:34:23.766Z,0
2023-05-07T00:35:24.281Z,0
2023-05-07T00:36:23.964Z,0
2023-05-07T00:37:24.237Z,0
2023-05-07T00:38:23.755Z,0
2023-05-07T00:39:24.069Z,0
2023-05-07T00:40:23.863Z,0
2023-05-07T00:41:24.187Z,0
2023-05-07T00:42:23.742Z,0
2023-05-07T00:43:24.168Z,0
2023-05-07T00:44:23.821Z,0
2023-05-07T00:45:23.797Z,0
2023-05-07T00:46:23.806Z,0
2023-05-07T00:47:24.072Z,0
2023-05-07T00:48:23.771Z,0
2023-05-07T00:49:24.098Z,0
2023-05-07T00:50:23.971Z,0
2023-05-07T00:51:23.781Z,0
2023-05-07T00:52:24.007Z,0
2023-05-07T00:53:24.114Z,0.109
2023-05-07T00:54:24.359Z,0
2023-05-07T00:55:23.706Z,0
2023-05-07T00:56:24.141Z,0
2023-05-07T00:57:23.866Z,0
2023-05-07T00:58:24.431Z,0
2023-05-07T00:59:23.881Z,0.109
2023-05-07T01:00:24.953Z,0.100
2023-05-07T01:01:23.744Z,0
2023-05-07T01:02:24.452Z,0
2023-05-07T01:03:23.928Z,0
2023-05-07T01:04:24.071Z,0
2023-05-07T01:05:23.854Z,0
2023-05-07T01:06:23.761Z,0
2023-05-07T01:07:24.537Z,0
2023-05-07T01:08:24.263Z,0
2023-05-07T01:09:24.403Z,0
2023-05-07T01:10:23.926Z,0
2023-05-07T01:11:24.168Z,0
2023-05-07T01:12:23.929Z,0
2023-05-07T01:13:23.890Z,0
2023-05-07T01:14:23.538Z,0
2023-05-07T01:15:24.266Z,0
2023-05-07T01:16:23.494Z,0.109
2023-05-07T01:17:24.191Z,0.109
2023-05-07T01:18:23.783Z,0.109
2023-05-07T01:19:24.026Z,0
2023-05-07T01:20:23.703Z,0
2023-05-07T01:21:23.982Z,0
2023-05-07T01:22:24.414Z,0.109
2023-05-07T01:23:23.509Z,0
2023-05-07T01:24:23.709Z,0
2023-05-07T01:25:24.480Z,0.109
2023-05-07T01:26:23.740Z,0
2023-05-07T01:27:24.170Z,0
2023-05-07T01:28:23.777Z,0
2023-05-07T01:29:24.009Z,0
2023-05-07T01:30:24.094Z,0
2023-05-07T01:31:23.713Z,0
2023-05-07T01:32:24.488Z,0
2023-05-07T01:33:23.902Z,0
2023-05-07T01:34:24.113Z,0
2023-05-07T01:35:23.898Z,0.109
2023-05-07T01:36:24.303Z,0.109
2023-05-07T01:37:24.221Z,0
2023-05-07T01:38:23.841Z,0.109
2023-05-07T01:39:24.392Z,0
2023-05-07T01:40:24.095Z,0
2023-05-07T01:41:23.589Z,0
2023-05-07T01:42:23.992Z,0
2023-05-07T01:43:23.441Z,0
2023-05-07T01:44:23.774Z,0.109
2023-05-07T01:45:23.950Z,0
2023-05-07T01:46:23.742Z,0
2023-05-07T01:47:24.468Z,0
2023-05-07T01:48:23.648Z,0
2023-05-07T01:49:24.014Z,0
2023-05-07T01:50:23.657Z,0
2023-05-07T01:51:23.993Z,0
2023-05-07T01:52:24.456Z,0
2023-05-07T01:53:23.893Z,0
2023-05-07T01:54:23.880Z,0
2023-05-07T01:55:24.456Z,0
2023-05-07T01:56:24.429Z,0
2023-05-07T01:57:23.934Z,0
2023-05-07T01:58:23.719Z,0.109
2023-05-07T01:59:24.282Z,0
2023-05-07T02:00:24.977Z,0
2023-05-07T02:01:23.542Z,0
2023-05-07T02:02:23.966Z,0
2023-05-07T02:03:23.842Z,0
2023-05-07T02:04:23.408Z,0
2023-05-07T02:05:24.376Z,0
2023-05-07T02:06:24.005Z,0
2023-05-07T02:07:24.233Z,0
2023-05-07T02:08:23.751Z,0
2023-05-07T02:09:24.344Z,0
2023-05-07T02:10:24.494Z,0
2023-05-07T02:11:24.134Z,0
2023-05-07T02:12:23.730Z,0
2023-05-07T02:13:24.246Z,0
2023-05-07T02:14:23.633Z,0
2023-05-07T02:15:24.655Z,0
2023-05-07T02:16:24.023Z,0
2023-05-07T02:17:23.814Z,0
2023-05-07T02:18:23.369Z,0
2023-05-07T02:19:23.881Z,0.109
2023-05-07T02:20:24.698Z,0
2023-05-07T02:21:24.267Z,0
2023-05-07T02:22:23.857Z,0
2023-05-07T02:23:23.375Z,0
2023-05-07T02:24:24.010Z,0
2023-05-07T02:25:23.966Z,0
2023-05-07T02:26:23.802Z,0
2023-05-07T02:27:24.131Z,0
2023-05-07T02:28:23.830Z,0
2023-05-07T02:29:24.489Z,0
2023-05-07T02:30:24.360Z,0
2023-05-07T02:31:23.943Z,0
2023-05-07T02:32:37.833Z,0
2023-05-07T02:33:23.907Z,0
2023-05-07T02:34:42.859Z,0
2023-05-07T02:35:24.410Z,0
2023-05-07T02:36:23.843Z,0
2023-05-07T02:37:24.440Z,0
2023-05-07T02:38:23.959Z,0
2023-05-07T02:39:23.649Z,0
2023-05-07T02:40:24.444Z,0
2023-05-07T02:41:23.955Z,0
2023-05-07T02:42:23.828Z,0
2023-05-07T02:43:24.054Z,0
2023-05-07T02:44:23.752Z,0
2023-05-07T02:45:24.641Z,0
2023-05-07T02:46:24.220Z,0
2023-05-07T02:47:24.202Z,0.109
2023-05-07T02:48:23.995Z,0
2023-05-07T02:49:23.997Z,0
2023-05-07T02:50:24.521Z,0
2023-05-07T02:51:26.088Z,0
2023-05-07T02:52:24.113Z,0
2023-05-07T02:53:23.817Z,0
2023-05-07T02:54:24.449Z,0
2023-05-07T02:55:24.448Z,0
2023-05-07T02:56:24.148Z,0
2023-05-07T02:57:24.090Z,0
2023-05-07T02:58:24.062Z,0
2023-05-07T02:59:24.221Z,0
2023-05-07T03:00:25.432Z,0
2023-05-07T03:01:24.647Z,0
2023-05-07T03:02:24.647Z,0.219
2023-05-07T03:03:24.287Z,0
2023-05-07T03:04:24.257Z,0
2023-05-07T03:05:24.266Z,0.109
2023-05-07T03:06:24.000Z,0
2023-05-07T03:07:23.906Z,0
2023-05-07T03:08:24.429Z,0.109
2023-05-07T03:09:24.059Z,0.109
2023-05-07T03:10:24.052Z,0
2023-05-07T03:11:23.691Z,0
2023-05-07T03:12:24.409Z,0
2023-05-07T03:13:24.365Z,0
2023-05-07T03:14:23.962Z,13600
2023-05-07T03:15:23.947Z,13600
2023-05-07T03:16:23.973Z,13600
2023-05-07T03:17:23.759Z,0
2023-05-07T03:18:23.589Z,13600
2023-05-07T03:19:24.207Z,13600
2023-05-07T03:20:23.754Z,13600
2023-05-07T03:21:24.168Z,13600
2023-05-07T03:22:23.938Z,13600
2023-05-07T03:23:24.984Z,13600
2023-05-07T03:24:23.624Z,13600
2023-05-07T03:25:24.448Z,13600
2023-05-07T03:26:23.601Z,13600
2023-05-07T03:27:24.229Z,0
2023-05-07T03:28:23.903Z,0
2023-05-07T03:29:24.312Z,0
2023-05-07T03:30:24.187Z,0
2023-05-07T03:31:23.748Z,0
2023-05-07T03:32:24.444Z,0.170
2023-05-07T03:33:24.209Z,0.680
2023-05-07T03:34:24.124Z,0.550
2023-05-07T03:35:24.133Z,0.070
2023-05-07T03:36:24.129Z,0.449
2023-05-07T03:37:23.860Z,0.600
2023-05-07T03:38:23.638Z,1.289
2023-05-07T03:39:23.710Z,1.269
2023-05-07T03:40:24.121Z,1.600
2023-05-07T03:41:23.641Z,2.460
2023-05-07T03:42:24.495Z,2.309
2023-05-07T03:43:24.429Z,3.200
2023-05-07T03:44:24.563Z,3.829
2023-05-07T03:45:24.905Z,3.940
2023-05-07T03:46:23.577Z,5.150
2023-05-07T03:47:24.015Z,5.360
2023-05-07T03:48:24.148Z,6.670
2023-05-07T03:49:24.166Z,7.679
2023-05-07T03:50:24.381Z,9.149
2023-05-07T03:51:24.516Z,10.71
2023-05-07T03:52:24.413Z,12.60
2023-05-07T03:53:24.399Z,14.63
2023-05-07T03:54:24.497Z,16.43
2023-05-07T03:55:24.694Z,18.62
2023-05-07T03:56:23.831Z,20.26
2023-05-07T03:57:24.070Z,22.20
2023-05-07T03:58:24.127Z,24.09
2023-05-07T03:59:24.418Z,26.82
2023-05-07T04:00:25.219Z,28.81
2023-05-07T04:01:24.165Z,31.20
2023-05-07T04:02:24.169Z,33.40
2023-05-07T04:03:24.410Z,35.83
2023-05-07T04:04:24.743Z,38
2023-05-07T04:05:24.065Z,40.65
2023-05-07T04:06:23.764Z,43.5
2023-05-07T04:07:24.460Z,46.5
2023-05-07T04:08:24.261Z,49.29
2023-05-07T04:09:24.307Z,52.40
2023-05-07T04:10:24.399Z,55.5
2023-05-07T04:11:24.090Z,59
2023-05-07T04:12:23.897Z,63.29
2023-05-07T04:13:23.873Z,69.30
2023-05-07T04:14:24.239Z,75.40
2023-05-07T04:15:24.299Z,81.30
2023-05-07T04:16:23.971Z,84.84
2023-05-07T04:17:23.956Z,88.59
2023-05-07T04:18:24.071Z,94.40
2023-05-07T04:19:23.588Z,103
2023-05-07T04:20:24.372Z,114.5
2023-05-07T04:21:24.026Z,123.6
2023-05-07T04:22:24.120Z,133
2023-05-07T04:23:24.149Z,142.6
2023-05-07T04:24:23.941Z,149.6
2023-05-07T04:25:24.080Z,156.1
2023-05-07T04:26:23.732Z,166
2023-05-07T04:27:23.794Z,176.5
2023-05-07T04:28:23.761Z,184.1
2023-05-07T04:29:29.001Z,193
2023-05-07T04:30:24.515Z,206
2023-05-07T04:31:28.573Z,221
2023-05-07T04:32:24.355Z,240
2023-05-07T04:33:24.230Z,260
2023-05-07T04:34:23.923Z,281
2023-05-07T04:35:24.173Z,303
2023-05-07T04:36:24.276Z,326
2023-05-07T04:37:24.394Z,350
2023-05-07T04:38:24.358Z,374
2023-05-07T04:39:24.096Z,399
2023-05-07T04:40:24.070Z,424
2023-05-07T04:41:24.269Z,450
2023-05-07T04:42:24.160Z,475
2023-05-07T04:43:24.113Z,499
2023-05-07T04:44:23.986Z,519
2023-05-07T04:45:24.477Z,538
2023-05-07T04:46:24.602Z,555
2023-05-07T04:47:24.680Z,569
2023-05-07T04:48:24.441Z,584
2023-05-07T04:49:24.386Z,603
2023-05-07T04:50:24.922Z,623
2023-05-07T04:51:24.174Z,640
2023-05-07T04:52:27.237Z,655
2023-05-07T04:53:24.586Z,667
2023-05-07T04:54:24.487Z,680
2023-05-07T04:55:24.786Z,692
2023-05-07T04:56:24.725Z,703
2023-05-07T04:57:24.239Z,711.0
2023-05-07T04:58:24.193Z,715.5
2023-05-07T04:59:24.096Z,720.2
2023-05-07T05:00:25.157Z,727.2
2023-05-07T05:01:43.330Z,740
2023-05-07T05:02:24.718Z,749.9
2023-05-07T05:03:23.790Z,749.7
2023-05-07T05:04:23.897Z,759.7
2023-05-07T05:05:24.037Z,771
2023-05-07T05:06:23.973Z,783
2023-05-07T05:07:24.036Z,808
2023-05-07T05:08:24.275Z,823.7
2023-05-07T05:09:23.983Z,827.4
2023-05-07T05:10:24.852Z,824.4
2023-05-07T05:11:24.568Z,821.0
2023-05-07T05:12:24.342Z,827.5
2023-05-07T05:13:24.069Z,834.2
2023-05-07T05:14:24.233Z,840.5
2023-05-07T05:15:24.852Z,847.5
2023-05-07T05:16:24.255Z,857
2023-05-07T05:17:24.690Z,872
2023-05-07T05:18:23.565Z,890
2023-05-07T05:19:24.006Z,912
2023-05-07T05:20:24.429Z,935
2023-05-07T05:21:24.445Z,959
2023-05-07T05:22:24.315Z,982
2023-05-07T05:23:23.975Z,1006
2023-05-07T05:24:24.048Z,1032
2023-05-07T05:25:24.322Z,1058
2023-05-07T05:26:24.407Z,1084
2023-05-07T05:27:24.280Z,1111
2023-05-07T05:28:24.115Z,1139
2023-05-07T05:29:23.885Z,1164
2023-05-07T05:30:24.472Z,1183
2023-05-07T05:31:24.411Z,1199
2023-05-07T05:32:24.509Z,1212.
2023-05-07T05:33:24.432Z,1220
2023-05-07T05:34:24.357Z,1229.
2023-05-07T05:35:24.307Z,1241
2023-05-07T05:36:24.677Z,1258
2023-05-07T05:37:24.447Z,1281
2023-05-07T05:38:24.393Z,1306
2023-05-07T05:39:24.358Z,1333
2023-05-07T05:40:24.430Z,1360
2023-05-07T05:41:24.223Z,1400
2023-05-07T05:42:24.189Z,1450
2023-05-07T05:43:24.300Z,1500
2023-05-07T05:44:24.351Z,1560
2023-05-07T05:45:24.408Z,1620
2023-05-07T05:46:24.340Z,1690
2023-05-07T05:47:24.721Z,1750
2023-05-07T05:48:23.914Z,1810
2023-05-07T05:49:24.300Z,1880
2023-05-07T05:50:24.383Z,1930
2023-05-07T05:51:24.612Z,1980
2023-05-07T05:52:24.561Z,2030
2023-05-07T05:53:24.588Z,2073
2023-05-07T05:54:23.860Z,2087.
2023-05-07T05:55:24.324Z,2094
2023-05-07T05:56:24.489Z,2097.
2023-05-07T05:57:25.983Z,2103
2023-05-07T05:58:24.759Z,2090
2023-05-07T05:59:24.764Z,2090
2023-05-07T06:00:24.944Z,2110
2023-05-07T06:01:24.184Z,2020
2023-05-07T06:02:24.830Z,1950
2023-05-07T06:03:24.377Z,1934
2023-05-07T06:04:24.877Z,1928.
2023-05-07T06:05:24.466Z,1933
2023-05-07T06:06:24.698Z,1945.
2023-05-07T06:07:23.951Z,1948.
2023-05-07T06:08:24.421Z,1944
2023-05-07T06:09:24.680Z,1920
2023-05-07T06:10:24.782Z,1890
2023-05-07T06:11:24.151Z,1840
2023-05-07T06:12:24.421Z,1810
2023-05-07T06:13:24.420Z,1785
2023-05-07T06:14:24.381Z,1769
2023-05-07T06:15:24.755Z,1758.
2023-05-07T06:16:24.278Z,1753.
2023-05-07T06:17:24.395Z,1752.
2023-05-07T06:18:24.615Z,1757.
2023-05-07T06:19:24.157Z,1758.
2023-05-07T06:20:24.455Z,1749
2023-05-07T06:21:24.278Z,1735
2023-05-07T06:22:24.633Z,1726.
2023-05-07T06:23:24.785Z,1727.
2023-05-07T06:24:24.586Z,1744
2023-05-07T06:25:24.785Z,1770
2023-05-07T06:26:24.026Z,1800
2023-05-07T06:27:24.378Z,1842
2023-05-07T06:28:24.645Z,1868
2023-05-07T06:29:24.338Z,1889
2023-05-07T06:30:24.778Z,1908
2023-05-07T06:31:24.258Z,1930
2023-05-07T06:32:24.624Z,1960
2023-05-07T06:33:23.905Z,1990
2023-05-07T06:34:24.120Z,2040
2023-05-07T06:35:24.197Z,2090
2023-05-07T06:36:24.108Z,2140
2023-05-07T06:37:24.263Z,2190
2023-05-07T06:38:24.468Z,2240
2023-05-07T06:39:24.721Z,2290
2023-05-07T06:40:24.640Z,2330
2023-05-07T06:41:23.819Z,2370
2023-05-07T06:42:23.857Z,2410
2023-05-07T06:43:24.005Z,2450
2023-05-07T06:44:23.950Z,2490
2023-05-07T06:45:24.242Z,2530
2023-05-07T06:46:24.180Z,2580
2023-05-07T06:47:24.623Z,2630
2023-05-07T06:48:24.656Z,2680
2023-05-07T06:49:24.876Z,2730
2023-05-07T06:50:24.978Z,2770
2023-05-07T06:51:24.187Z,2810
2023-05-07T06:52:24.409Z,2850
2023-05-07T06:53:24.314Z,2884
2023-05-07T06:54:24.453Z,2912
2023-05-07T06:55:24.953Z,2927
2023-05-07T06:56:24.041Z,2940.
2023-05-07T06:57:24.563Z,2946.
2023-05-07T06:58:24.468Z,2947.
2023-05-07T06:59:24.962Z,2945.
2023-05-07T07:00:24.896Z,2947.
2023-05-07T07:01:24.320Z,2948.
2023-05-07T07:02:29.786Z,2941
2023-05-07T07:03:23.927Z,2935.
2023-05-07T07:04:24.839Z,2933
2023-05-07T07:05:24.285Z,2926.
2023-05-07T07:06:24.420Z,2915
2023-05-07T07:07:24.713Z,2897
2023-05-07T07:08:24.727Z,2881
2023-05-07T07:09:24.288Z,2864
2023-05-07T07:10:32.974Z,2852.
2023-05-07T07:11:24.286Z,2851.
2023-05-07T07:12:24.710Z,2853.
2023-05-07T07:13:24.043Z,2854.
2023-05-07T07:14:24.174Z,2852.
2023-05-07T07:15:24.372Z,2846
2023-05-07T07:16:38.441Z,2827
2023-05-07T07:17:24.701Z,2809
2023-05-07T07:18:24.304Z,2794
2023-05-07T07:19:24.345Z,2788.
2023-05-07T07:20:38.402Z,2789.
2023-05-07T07:21:24.205Z,2797
2023-05-07T07:22:24.554Z,2809
2023-05-07T07:23:24.527Z,2822
2023-05-07T07:24:24.583Z,2829.
2023-05-07T07:25:25.064Z,2828.
2023-05-07T07:26:24.192Z,2819
2023-05-07T07:27:24.750Z,2812.
2023-05-07T07:28:24.052Z,2810.
2023-05-07T07:29:24.212Z,2818
2023-05-07T07:30:24.804Z,2833
2023-05-07T07:31:24.269Z,2854
2023-05-07T07:32:25.127Z,2880
2023-05-07T07:33:23.953Z,2910
2023-05-07T07:34:24.460Z,2940
2023-05-07T07:35:25.754Z,2980
2023-05-07T07:36:29.476Z,3020
2023-05-07T07:37:23.874Z,3070
2023-05-07T07:38:24.013Z,3120
2023-05-07T07:39:24.464Z,3180
2023-05-07T07:40:24.637Z,3240
2023-05-07T07:41:24.484Z,3300
2023-05-07T07:42:24.349Z,3360
2023-05-07T07:43:24.293Z,3400
2023-05-07T07:44:24.040Z,3440
2023-05-07T07:45:24.364Z,3470
2023-05-07T07:46:24.311Z,3510
2023-05-07T07:47:24.695Z,3540
2023-05-07T07:48:24.186Z,3579
2023-05-07T07:49:24.193Z,3610
2023-05-07T07:50:39.983Z,3640
2023-05-07T07:51:24.335Z,3680
2023-05-07T07:52:24.679Z,3710
2023-05-07T07:53:24.064Z,3741
2023-05-07T07:54:24.307Z,3768
2023-05-07T07:55:24.892Z,3792
2023-05-07T07:56:24.243Z,3817
2023-05-07T07:57:24.689Z,3843
2023-05-07T07:58:24.198Z,3867
2023-05-07T07:59:24.479Z,3887
2023-05-07T08:00:25.811Z,3913
2023-05-07T08:01:24.229Z,3941
2023-05-07T08:02:24.990Z,3970
2023-05-07T08:03:24.618Z,4010
2023-05-07T08:04:24.462Z,4052
2023-05-07T08:05:24.400Z,4073
2023-05-07T08:06:24.548Z,4093
2023-05-07T08:07:24.159Z,4100
2023-05-07T08:08:24.359Z,4150
2023-05-07T08:09:24.376Z,4178
2023-05-07T08:10:24.952Z,4230
2023-05-07T08:11:24.629Z,4290
2023-05-07T08:12:24.336Z,4318
2023-05-07T08:13:24.641Z,4350
2023-05-07T08:14:23.709Z,4377
2023-05-07T08:15:24.353Z,4373
2023-05-07T08:16:24.646Z,4370
2023-05-07T08:17:24.112Z,4420
2023-05-07T08:18:24.322Z,4450
2023-05-07T08:19:24.488Z,4500
2023-05-07T08:20:25.012Z,4540
2023-05-07T08:21:24.290Z,4590
2023-05-07T08:22:24.291Z,4650
2023-05-07T08:23:24.512Z,4730
2023-05-07T08:24:24.727Z,4800
2023-05-07T08:25:24.981Z,5000
2023-05-07T08:26:23.934Z,5300
2023-05-07T08:27:24.114Z,5400
2023-05-07T08:28:24.070Z,5600
2023-05-07T08:29:24.289Z,5570
2023-05-07T08:30:24.763Z,5600
2023-05-07T08:31:23.867Z,5800
2023-05-07T08:32:24.263Z,5950
2023-05-07T08:33:24.830Z,6010
2023-05-07T08:34:24.341Z,5000
2023-05-07T08:35:24.519Z,5600
2023-05-07T08:36:24.516Z,5500
2023-05-07T08:37:24.419Z,5600
2023-05-07T08:38:24.808Z,5600
2023-05-07T08:39:24.676Z,5600
2023-05-07T08:40:24.469Z,5500
2023-05-07T08:41:24.548Z,5000
2023-05-07T08:42:25.147Z,5000
2023-05-07T08:43:24.006Z,4950
2023-05-07T08:44:24.551Z,4800
2023-05-07T08:45:24.902Z,4700
2023-05-07T08:46:24.152Z,4600
2023-05-07T08:47:24.788Z,4520
2023-05-07T08:48:24.171Z,4460
2023-05-07T08:49:24.456Z,4432
2023-05-07T08:50:24.922Z,4410
2023-05-07T08:51:24.194Z,4406
2023-05-07T08:52:24.339Z,4424
2023-05-07T08:53:24.584Z,4442
2023-05-07T08:54:24.271Z,4466
2023-05-07T08:55:25.049Z,4500
2023-05-07T08:56:24.647Z,4529
2023-05-07T08:57:24.189Z,4548
2023-05-07T08:58:24.648Z,4590
2023-05-07T08:59:24.412Z,4620
2023-05-07T09:00:24.974Z,4660
2023-05-07T09:01:24.355Z,4720
2023-05-07T09:02:24.862Z,4800
2023-05-07T09:03:24.189Z,4860
2023-05-07T09:04:24.670Z,4950
2023-05-07T09:05:24.293Z,5000
2023-05-07T09:06:24.650Z,5200
2023-05-07T09:07:24.010Z,5500
2023-05-07T09:08:24.400Z,5000
2023-05-07T09:09:24.601Z,6100
2023-05-07T09:10:24.283Z,6040
2023-05-07T09:11:24.369Z,6000
2023-05-07T09:12:24.731Z,6100
2023-05-07T09:13:24.609Z,6200
2023-05-07T09:14:24.638Z,6200
2023-05-07T09:15:24.342Z,6200
2023-05-07T09:16:24.410Z,6400
2023-05-07T09:17:24.837Z,6000
2023-05-07T09:18:24.284Z,6300
2023-05-07T09:19:29.951Z,6000
2023-05-07T09:20:24.795Z,6400
2023-05-07T09:21:29.220Z,6000
2023-05-07T09:22:24.756Z,6300
2023-05-07T09:23:24.265Z,6400
2023-05-07T09:24:24.858Z,6360
2023-05-07T09:25:29.731Z,6390
2023-05-07T09:26:24.437Z,6000
2023-05-07T09:27:24.962Z,6000
2023-05-07T09:28:24.395Z,6000
2023-05-07T09:29:24.670Z,6400
2023-05-07T09:30:24.694Z,6360
2023-05-07T09:31:24.179Z,6370
2023-05-07T09:32:24.619Z,6300
2023-05-07T09:33:24.117Z,6300
2023-05-07T09:34:24.458Z,6300
2023-05-07T09:35:32.272Z,6130
2023-05-07T09:36:24.538Z,6040
2023-05-07T09:37:24.677Z,6002
2023-05-07T09:38:24.039Z,5994.
2023-05-07T09:39:24.245Z,6025
2023-05-07T09:40:24.688Z,6000
2023-05-07T09:41:24.005Z,6000
2023-05-07T09:42:24.445Z,6000
2023-05-07T09:43:24.582Z,6000
2023-05-07T09:44:24.209Z,5700
2023-05-07T09:45:25.101Z,5700
2023-05-07T09:46:24.272Z,5730
2023-05-07T09:47:24.822Z,5713.
2023-05-07T09:48:24.309Z,5718.
2023-05-07T09:49:24.498Z,5733
2023-05-07T09:50:24.776Z,5742
2023-05-07T09:51:24.348Z,5770
2023-05-07T09:52:24.500Z,5821
2023-05-07T09:53:23.818Z,5823
2023-05-07T09:54:24.220Z,5809.
2023-05-07T09:55:24.986Z,5780
2023-05-07T09:56:24.379Z,5710
2023-05-07T09:57:24.123Z,5620
2023-05-07T09:58:24.955Z,5500
2023-05-07T09:59:24.316Z,5400
2023-05-07T10:00:25.298Z,5200
2023-05-07T10:01:24.771Z,5000
2023-05-07T10:02:24.232Z,4800
2023-05-07T10:03:24.213Z,4750
2023-05-07T10:04:24.851Z,4687
2023-05-07T10:05:24.394Z,4670
2023-05-07T10:06:24.032Z,4700
2023-05-07T10:07:24.319Z,5000
2023-05-07T10:08:24.500Z,5000
2023-05-07T10:09:24.142Z,5300
2023-05-07T10:10:24.711Z,5300
2023-05-07T10:11:24.248Z,5600
2023-05-07T10:12:24.500Z,0
2023-05-07T10:13:24.388Z,7000
2023-05-07T10:14:24.484Z,0
2023-05-07T10:15:25.066Z,0
2023-05-07T10:16:24.366Z,0
2023-05-07T10:17:24.961Z,0
2023-05-07T10:18:24.933Z,5000
2023-05-07T10:19:25.053Z,5000
2023-05-07T10:20:24.814Z,4800
2023-05-07T10:21:24.183Z,4600
2023-05-07T10:22:24.221Z,4300
2023-05-07T10:23:24.303Z,4100
2023-05-07T10:24:24.494Z,3990
2023-05-07T10:25:24.592Z,3950
2023-05-07T10:26:23.983Z,3900
2023-05-07T10:27:24.526Z,4100
2023-05-07T10:28:24.098Z,4400
2023-05-07T10:29:24.168Z,4600
2023-05-07T10:30:27.402Z,4740
2023-05-07T10:31:24.222Z,4830
2023-05-07T10:32:24.740Z,4910
2023-05-07T10:33:24.476Z,5000
2023-05-07T10:34:25.084Z,5130
2023-05-07T10:35:24.825Z,5179
2023-05-07T10:36:24.683Z,5166
2023-05-07T10:37:24.422Z,5160
2023-05-07T10:38:24.922Z,5200
2023-05-07T10:39:24.528Z,5400
2023-05-07T10:40:24.194Z,5600
2023-05-07T10:41:24.174Z,5800
2023-05-07T10:42:24.485Z,6000
2023-05-07T10:43:24.770Z,0
2023-05-07T10:44:24.174Z,7000
2023-05-07T10:45:25.361Z,0
2023-05-07T10:46:24.903Z,0
2023-05-07T10:47:25.030Z,4000
2023-05-07T10:48:30.333Z,4000
2023-05-07T10:49:24.798Z,3700
2023-05-07T10:50:24.794Z,3500
2023-05-07T10:51:24.189Z,3300
2023-05-07T10:52:24.585Z,3100
2023-05-07T10:53:24.324Z,3000
2023-05-07T10:54:24.871Z,2800
2023-05-07T10:55:24.651Z,2700
2023-05-07T10:56:24.106Z,2580
2023-05-07T10:57:24.893Z,2526
2023-05-07T10:58:31.470Z,2517.
2023-05-07T10:59:24.894Z,2520.
2023-05-07T11:00:37.904Z,2480
2023-05-07T11:01:24.428Z,2400
2023-05-07T11:02:24.434Z,2340
2023-05-07T11:03:24.455Z,2290
2023-05-07T11:04:23.875Z,2210
2023-05-07T11:06:29.283Z,1900
2023-05-07T11:07:24.853Z,1800
2023-05-07T11:08:24.541Z,1700
2023-05-07T11:09:24.151Z,1600
2023-05-07T11:10:24.347Z,1520
2023-05-07T11:11:24.400Z,1489
2023-05-07T11:12:24.457Z,1492
2023-05-07T11:13:24.466Z,1522
2023-05-07T11:14:24.902Z,1539
2023-05-07T11:15:25.063Z,1560
2023-05-07T11:16:24.494Z,1630
2023-05-07T11:17:24.406Z,1680
2023-05-07T11:18:24.585Z,1709
2023-05-07T11:19:24.747Z,1760
2023-05-07T11:20:24.875Z,1850
2023-05-07T11:21:24.359Z,1900
2023-05-07T11:22:24.732Z,1900
2023-05-07T11:23:24.104Z,1837
2023-05-07T11:24:24.343Z,1860
2023-05-07T11:25:24.529Z,1900
2023-05-07T11:26:24.236Z,2100
2023-05-07T11:27:24.750Z,2000
2023-05-07T11:28:24.311Z,2700
2023-05-07T11:29:24.609Z,3000
2023-05-07T11:30:24.638Z,3300
2023-05-07T11:31:24.254Z,3000
2023-05-07T11:32:24.708Z,3000
2023-05-07T11:33:24.533Z,4000
2023-05-07T11:34:24.760Z,4000
2023-05-07T11:35:24.761Z,5000
2023-05-07T11:36:24.485Z,5000
2023-05-07T11:37:24.365Z,6100
2023-05-07T11:38:25.013Z,6300
2023-05-07T11:39:24.419Z,6600
2023-05-07T11:40:24.816Z,6600
2023-05-07T11:41:24.357Z,6560
2023-05-07T11:42:24.871Z,6520
2023-05-07T11:43:24.880Z,6461
2023-05-07T11:44:24.896Z,6470
2023-05-07T11:45:24.991Z,6540
2023-05-07T11:46:24.382Z,6577
2023-05-07T11:47:25.047Z,6550
2023-05-07T11:48:24.322Z,6530
2023-05-07T11:49:24.915Z,6400
2023-05-07T11:50:24.179Z,6300
2023-05-07T11:51:24.529Z,6100
2023-05-07T11:52:24.088Z,5900
2023-05-07T11:53:24.906Z,5851
2023-05-07T11:54:32.595Z,5830
2023-05-07T11:55:25.192Z,5600
2023-05-07T11:56:24.493Z,5300
2023-05-07T11:57:24.890Z,5000
2023-05-07T11:58:24.637Z,4000
2023-05-07T11:59:24.378Z,4000
2023-05-07T12:00:33.494Z,4000
2023-05-07T12:01:24.973Z,3700
2023-05-07T12:02:38.603Z,3000
2023-05-07T12:03:24.572Z,3100
2023-05-07T12:04:24.697Z,2900
2023-05-07T12:05:24.992Z,2890
2023-05-07T12:06:24.494Z,2820
2023-05-07T12:07:24.907Z,2775
2023-05-07T12:08:24.349Z,2790
2023-05-07T12:09:24.868Z,2860
2023-05-07T12:10:38.602Z,2960
2023-05-07T12:11:24.885Z,3016
2023-05-07T12:12:24.638Z,3000
2023-05-07T12:13:24.166Z,2920
2023-05-07T12:14:25.029Z,2850
2023-05-07T12:15:25.101Z,2790
2023-05-07T12:16:24.732Z,2730
2023-05-07T12:17:24.252Z,2670
2023-05-07T12:18:24.638Z,2643
2023-05-07T12:19:24.917Z,2648
2023-05-07T12:20:24.663Z,2655.
2023-05-07T12:21:24.304Z,2653.
2023-05-07T12:22:24.700Z,2680
2023-05-07T12:23:24.137Z,2700
2023-05-07T12:24:24.412Z,2900
2023-05-07T12:25:24.590Z,3100
2023-05-07T12:26:24.205Z,3300
2023-05-07T12:27:24.676Z,3500
2023-05-07T12:28:24.326Z,3700
2023-05-07T12:29:24.561Z,3900
2023-05-07T12:30:46.347Z,4088
2023-05-07T12:31:24.181Z,4000
2023-05-07T12:32:24.829Z,3800
2023-05-07T12:33:24.338Z,3500
2023-05-07T12:34:24.863Z,3200
2023-05-07T12:35:24.388Z,3000
2023-05-07T12:36:24.546Z,2800
2023-05-07T12:37:24.215Z,2500
2023-05-07T12:38:24.623Z,2300
2023-05-07T12:39:24.578Z,2000
2023-05-07T12:40:24.991Z,1900
2023-05-07T12:41:24.198Z,1830
2023-05-07T12:42:24.852Z,1760
2023-05-07T12:43:24.104Z,1727
2023-05-07T12:44:24.822Z,1715.
2023-05-07T12:45:24.735Z,1718
2023-05-07T12:46:24.427Z,1731
2023-05-07T12:47:25.032Z,1735.
2023-05-07T12:48:24.534Z,1722
2023-05-07T12:49:25.414Z,1711.
2023-05-07T12:50:24.681Z,1720
2023-05-07T12:51:24.532Z,1751
2023-05-07T12:52:24.576Z,1720
2023-05-07T12:53:24.233Z,1640
2023-05-07T12:54:24.557Z,1601
2023-05-07T12:55:25.062Z,1611
2023-05-07T12:57:28.820Z,1700
2023-05-07T12:58:24.398Z,1900
2023-05-07T12:59:24.895Z,2000
2023-05-07T13:00:25.162Z,2000
2023-05-07T13:01:24.577Z,3000
2023-05-07T13:02:24.592Z,3400
2023-05-07T13:03:24.385Z,3000
2023-05-07T13:04:24.451Z,3000
2023-05-07T13:05:25.144Z,3000
2023-05-07T13:06:25.030Z,2000
2023-05-07T13:07:24.859Z,2000
2023-05-07T13:08:25.158Z,2100
2023-05-07T13:09:24.832Z,2010
2023-05-07T13:10:24.881Z,1960
2023-05-07T13:11:24.457Z,1800
2023-05-07T13:12:24.624Z,1700
2023-05-07T13:13:24.168Z,1600
2023-05-07T13:14:24.548Z,1510
2023-05-07T13:15:24.771Z,1420
2023-05-07T13:16:24.578Z,1340
2023-05-07T13:17:24.444Z,1260
2023-05-07T13:18:24.373Z,1190
2023-05-07T13:19:24.003Z,1159
2023-05-07T13:20:24.656Z,1138
2023-05-07T13:21:24.168Z,1132.
2023-05-07T13:22:24.617Z,1136.
2023-05-07T13:23:24.095Z,1138.
2023-05-07T13:24:24.723Z,1136.
2023-05-07T13:25:24.976Z,1131.
2023-05-07T13:26:26.882Z,1126.
2023-05-07T13:27:24.273Z,1118
2023-05-07T13:28:24.637Z,1103
2023-05-07T13:29:24.690Z,1081
2023-05-07T13:30:25.366Z,1063
2023-05-07T13:31:24.439Z,1053.
2023-05-07T13:32:24.683Z,1052.
2023-05-07T13:33:24.500Z,1057.
2023-05-07T13:34:24.714Z,1064
2023-05-07T13:35:24.495Z,1079
2023-05-07T13:36:25.295Z,1100